createdAt,value
2018-03-07T00:03:54.114Z,1.30
2018-03-07T00:07:57.485Z,1.40
2018-03-07T00:12:00.843Z,1.40
2018-03-07T00:16:04.232Z,1.40
2018-03-07T00:20:07.589Z,1.50
2018-03-07T00:24:10.956Z,1.60
2018-03-07T00:28:14.337Z,1.60
2018-03-07T00:32:17.909Z,1.70
2018-03-07T00:36:21.281Z,1.70
2018-03-07T00:40:24.653Z,1.70
2018-03-07T00:44:27.995Z,1.60
2018-03-07T00:48:32.170Z,1.60
2018-03-07T00:52:35.514Z,1.60
2018-03-07T00:56:39.002Z,1.60
2018-03-07T01:00:42.369Z,1.50
2018-03-07T01:04:45.912Z,1.50
2018-03-07T01:08:49.360Z,1.60
2018-03-07T01:12:53.522Z,1.40
2018-03-07T01:16:56.893Z,1.50
2018-03-07T01:21:01.007Z,1.60
2018-03-07T01:25:04.370Z,1.60
2018-03-07T01:29:07.860Z,1.50
2018-03-07T01:33:11.252Z,1.50
2018-03-07T01:37:14.621Z,1.50
2018-03-07T01:41:18.069Z,1.60
2018-03-07T01:45:21.599Z,1.60
2018-03-07T01:49:24.962Z,1.50
2018-03-07T01:53:29.196Z,1.60
2018-03-07T01:57:33.335Z,1.50
2018-03-07T02:01:36.708Z,1.50
2018-03-07T02:05:40.850Z,1.60
2018-03-07T02:09:44.994Z,1.50
2018-03-07T02:13:49.111Z,1.50
2018-03-07T02:17:52.480Z,1.50
2018-03-07T02:21:55.842Z,1.50
2018-03-07T02:25:59.210Z,1.50
2018-03-07T02:30:03.352Z,1.50
2018-03-07T02:34:06.735Z,1.50
2018-03-07T02:38:10.867Z,1.60
2018-03-07T02:42:15.078Z,1.60
2018-03-07T02:46:18.466Z,1.60
2018-03-07T02:50:21.843Z,1.50
2018-03-07T02:54:25.220Z,1.50
2018-03-07T02:58:28.694Z,1.60
2018-03-07T03:02:32.814Z,1.50
2018-03-07T03:06:36.455Z,1.50
2018-03-07T03:10:39.837Z,1.40
2018-03-07T03:14:43.306Z,1.50
2018-03-07T03:18:46.686Z,1.50
2018-03-07T03:22:50.056Z,1.40
2018-03-07T03:26:53.413Z,1.30
2018-03-07T03:30:56.775Z,1.40
2018-03-07T03:35:00.941Z,1.40
2018-03-07T03:39:04.295Z,1.40
2018-03-07T03:43:07.654Z,1.40
2018-03-07T03:47:11.029Z,1.40
2018-03-07T03:51:15.158Z,1.40
2018-03-07T03:55:19.283Z,1.40
2018-03-07T03:59:23.430Z,1.40
2018-03-07T04:03:26.801Z,1.40
2018-03-07T04:07:30.928Z,1.50
2018-03-07T04:11:35.037Z,1.40
2018-03-07T04:15:39.174Z,1.40
2018-03-07T04:19:43.366Z,1.50
2018-03-07T04:23:46.735Z,1.50
2018-03-07T04:27:50.118Z,1.60
2018-03-07T04:31:53.607Z,1.50
2018-03-07T04:35:57.777Z,1.50
2018-03-07T04:40:01.257Z,1.40
2018-03-07T04:44:05.608Z,1.50
2018-03-07T04:48:08.987Z,1.50
2018-03-07T04:52:12.381Z,1.50
2018-03-07T04:56:16.538Z,1.40
2018-03-07T05:00:19.901Z,1.40
2018-03-07T05:04:24.109Z,1.50
2018-03-07T05:08:27.506Z,1.40
2018-03-07T05:12:30.925Z,1.40
2018-03-07T05:16:34.273Z,1.40
2018-03-07T05:20:37.636Z,1.50
2018-03-07T05:24:41.002Z,1.40
2018-03-07T05:28:44.363Z,1.50
2018-03-07T05:32:47.845Z,1.60
2018-03-07T05:36:51.225Z,1.50
2018-03-07T05:40:54.606Z,1.40
2018-03-07T05:44:57.960Z,1.40
2018-03-07T05:49:01.316Z,1.30
2018-03-07T05:53:05.580Z,1.50
2018-03-07T05:57:08.933Z,1.50
2018-03-07T06:01:13.054Z,1.50
2018-03-07T06:05:17.188Z,1.60
2018-03-07T06:09:21.312Z,1.60
2018-03-07T06:13:24.687Z,1.60
2018-03-07T06:17:28.072Z,1.70
2018-03-07T06:21:31.431Z,1.70
2018-03-07T06:25:35.665Z,1.60
2018-03-07T06:29:39.034Z,1.60
2018-03-07T06:33:42.468Z,1.60
2018-03-07T06:37:46.604Z,1.70
2018-03-07T06:41:50.011Z,1.70
2018-03-07T06:45:53.374Z,1.70
2018-03-07T06:49:56.745Z,1.80
2018-03-07T06:54:00.103Z,1.80
2018-03-07T06:58:04.239Z,1.90
2018-03-07T07:02:08.534Z,1.90
2018-03-07T07:06:11.941Z,1.90
2018-03-07T07:10:15.261Z,2.10
2018-03-07T07:14:19.397Z,2.20
2018-03-07T07:18:23.758Z,2.20
2018-03-07T07:22:27.125Z,2.20
2018-03-07T07:26:31.268Z,2.40
2018-03-07T07:30:34.634Z,2.30
2018-03-07T07:34:38.144Z,2.30
2018-03-07T07:38:41.609Z,2.40
2018-03-07T07:42:44.978Z,2.40
2018-03-07T07:46:49.102Z,2.50
2018-03-07T07:50:53.246Z,2.60
2018-03-07T07:54:56.641Z,2.60
2018-03-07T07:59:00.779Z,2.60
2018-03-07T08:03:04.162Z,2.60
2018-03-07T08:07:08.290Z,2.60
2018-03-07T08:11:12.496Z,2.70
2018-03-07T08:15:15.870Z,2.70
2018-03-07T08:19:19.258Z,2.70
2018-03-07T08:23:22.605Z,2.70
2018-03-07T08:27:25.965Z,2.80
2018-03-07T08:31:29.349Z,2.80
2018-03-07T08:35:32.712Z,2.90
2018-03-07T08:39:36.087Z,2.90
2018-03-07T08:43:39.488Z,3.00
2018-03-07T08:47:42.894Z,3.10
2018-03-07T08:51:46.394Z,3.10
2018-03-07T08:55:49.834Z,3.10
2018-03-07T08:59:53.396Z,3.10
2018-03-07T09:03:57.515Z,3.30
2018-03-07T09:08:01.638Z,3.20
2018-03-07T09:12:05.782Z,3.20
2018-03-07T09:16:09.164Z,3.20
2018-03-07T09:20:13.281Z,3.50
2018-03-07T09:24:17.418Z,3.40
2018-03-07T09:28:21.561Z,3.50
2018-03-07T09:32:24.953Z,3.40
2018-03-07T09:36:28.314Z,3.50
2018-03-07T09:40:31.680Z,3.40
2018-03-07T09:44:35.060Z,3.40
2018-03-07T09:48:39.204Z,3.50
2018-03-07T09:52:42.615Z,3.50
2018-03-07T09:56:46.082Z,3.50
2018-03-07T10:00:49.449Z,3.60
2018-03-07T10:04:52.860Z,3.70
2018-03-07T10:08:56.320Z,3.70
2018-03-07T10:13:00.582Z,3.70
2018-03-07T10:17:03.938Z,3.70
2018-03-07T10:21:08.078Z,3.70
2018-03-07T10:25:11.458Z,3.70
2018-03-07T10:29:14.853Z,3.70
2018-03-07T10:33:23.879Z,3.80
2018-03-07T10:37:27.308Z,3.80
2018-03-07T10:41:30.675Z,3.90
2018-03-07T10:45:34.052Z,3.80
2018-03-07T10:49:37.396Z,3.70
2018-03-07T10:53:40.775Z,3.80
2018-03-07T10:57:44.128Z,3.70
2018-03-07T11:01:47.525Z,3.70
2018-03-07T11:05:50.923Z,3.80
2018-03-07T11:09:54.290Z,3.90
2018-03-07T11:13:57.649Z,3.80
2018-03-07T11:18:01.017Z,3.70
2018-03-07T11:22:04.403Z,3.90
2018-03-07T11:26:07.754Z,3.90
2018-03-07T11:30:11.113Z,4.00
2018-03-07T11:34:14.550Z,4.00
2018-03-07T11:38:18.022Z,4.10
2018-03-07T11:42:21.385Z,3.90
2018-03-07T11:46:24.770Z,3.80
2018-03-07T11:50:28.148Z,3.80
2018-03-07T11:54:31.509Z,3.70
2018-03-07T11:58:34.985Z,3.70
2018-03-07T12:02:38.406Z,3.90
2018-03-07T12:06:41.772Z,3.80
2018-03-07T12:10:45.176Z,3.90
2018-03-07T12:14:48.534Z,3.90
2018-03-07T12:18:51.995Z,3.90
2018-03-07T12:22:55.597Z,3.90
2018-03-07T12:26:58.961Z,3.80
2018-03-07T12:31:02.432Z,3.90
2018-03-07T12:35:05.795Z,3.90
2018-03-07T12:39:09.379Z,3.90
2018-03-07T12:43:13.248Z,4.00
2018-03-07T12:47:16.936Z,3.90
2018-03-07T12:51:20.428Z,3.90
2018-03-07T12:55:23.804Z,3.90
2018-03-07T12:59:27.519Z,3.80
2018-03-07T13:03:30.893Z,3.70
2018-03-07T13:07:34.262Z,4.00
2018-03-07T13:11:37.643Z,3.90
2018-03-07T13:15:41.016Z,3.80
2018-03-07T13:19:44.388Z,3.80
2018-03-07T13:23:47.740Z,4.00
2018-03-07T13:27:51.135Z,4.10
2018-03-07T13:31:54.485Z,4.10
2018-03-07T13:35:57.845Z,4.10
2018-03-07T13:40:01.229Z,4.00
2018-03-07T13:44:05.541Z,4.10
2018-03-07T13:48:09.357Z,4.10
2018-03-07T13:52:12.747Z,4.10
2018-03-07T13:56:16.101Z,4.20
2018-03-07T14:00:19.609Z,4.10
2018-03-07T14:04:23.035Z,4.30
2018-03-07T14:08:27.126Z,4.10
2018-03-07T14:12:31.302Z,4.20
2018-03-07T14:16:34.680Z,4.20
2018-03-07T14:20:38.094Z,3.90
2018-03-07T14:24:41.530Z,4.00
2018-03-07T14:28:44.890Z,3.90
2018-03-07T14:32:48.401Z,3.80
2018-03-07T14:36:51.814Z,3.70
2018-03-07T14:40:55.318Z,3.80
2018-03-07T14:44:58.742Z,3.90
2018-03-07T14:49:02.127Z,3.90
2018-03-07T14:53:05.522Z,3.80
2018-03-07T14:57:08.891Z,3.90
2018-03-07T15:01:12.285Z,3.70
2018-03-07T15:05:15.653Z,3.60
2018-03-07T15:09:19.045Z,3.80
2018-03-07T15:13:22.431Z,3.70
2018-03-07T15:17:25.807Z,3.80
2018-03-07T15:21:29.184Z,3.70
2018-03-07T15:25:32.585Z,3.60
2018-03-07T15:29:35.956Z,3.50
2018-03-07T15:33:39.347Z,3.60
2018-03-07T15:37:42.749Z,3.60
2018-03-07T15:41:46.145Z,3.30
2018-03-07T15:45:49.561Z,3.30
2018-03-07T15:49:52.929Z,3.20
2018-03-07T15:53:56.298Z,3.20
2018-03-07T15:58:00.430Z,3.10
2018-03-07T16:02:04.566Z,3.00
2018-03-07T16:06:07.946Z,3.00
2018-03-07T16:10:11.369Z,2.90
2018-03-07T16:14:15.494Z,2.70
2018-03-07T16:18:19.637Z,2.80
2018-03-07T16:22:23.059Z,2.70
2018-03-07T16:26:26.445Z,2.80
2018-03-07T16:30:29.810Z,2.70
2018-03-07T16:34:33.193Z,2.80
2018-03-07T16:38:36.566Z,2.80
2018-03-07T16:42:39.930Z,2.80
2018-03-07T16:46:43.307Z,2.50
2018-03-07T16:50:46.682Z,2.40
2018-03-07T16:54:50.059Z,2.30
2018-03-07T16:58:54.190Z,2.20
2018-03-07T17:02:58.372Z,2.20
2018-03-07T17:07:01.749Z,2.20
2018-03-07T17:11:05.119Z,2.20
2018-03-07T17:15:09.273Z,2.20
2018-03-07T17:19:12.637Z,2.20
2018-03-07T17:23:16.032Z,2.00
2018-03-07T17:27:19.396Z,2.00
2018-03-07T17:31:22.844Z,2.20
2018-03-07T17:35:26.230Z,2.10
2018-03-07T17:39:29.731Z,2.10
2018-03-07T17:43:33.104Z,2.00
2018-03-07T17:47:36.463Z,1.90
2018-03-07T17:51:39.939Z,1.80
2018-03-07T17:55:43.320Z,2.00
2018-03-07T17:59:46.699Z,1.90
2018-03-07T18:03:50.065Z,1.80
2018-03-07T18:07:53.550Z,1.70
2018-03-07T18:11:56.968Z,1.70
2018-03-07T18:16:00.353Z,1.70
2018-03-07T18:20:03.765Z,1.60
2018-03-07T18:24:07.149Z,1.60
2018-03-07T18:28:11.356Z,1.60
2018-03-07T18:32:14.919Z,1.60
2018-03-07T18:36:18.296Z,1.60
2018-03-07T18:40:22.452Z,1.60
2018-03-07T18:44:25.860Z,1.60
2018-03-07T18:48:29.297Z,1.70
2018-03-07T18:52:32.648Z,1.70
2018-03-07T18:56:37.651Z,1.60
2018-03-07T19:00:42.015Z,1.70
2018-03-07T19:04:46.848Z,1.60
2018-03-07T19:08:51.101Z,1.60
2018-03-07T19:12:55.179Z,1.60
2018-03-07T19:16:59.496Z,1.60
2018-03-07T19:21:02.906Z,1.50
2018-03-07T19:25:06.279Z,1.60
2018-03-07T19:29:09.680Z,1.60
2018-03-07T19:33:13.038Z,1.60
2018-03-07T19:37:16.396Z,1.60
2018-03-07T19:41:19.806Z,1.50
2018-03-07T19:45:23.224Z,1.60
2018-03-07T19:49:26.649Z,1.60
2018-03-07T19:53:31.543Z,1.60
2018-03-07T19:57:34.959Z,1.60
2018-03-07T20:01:38.378Z,1.60
2018-03-07T20:05:41.765Z,1.60
2018-03-07T20:09:45.134Z,1.60
2018-03-07T20:13:49.300Z,1.60
2018-03-07T20:17:52.712Z,1.50
2018-03-07T20:21:56.968Z,1.60
2018-03-07T20:26:00.540Z,1.60
2018-03-07T20:30:03.897Z,1.50
2018-03-07T20:34:07.290Z,1.50
2018-03-07T20:38:10.673Z,1.60
2018-03-07T20:42:14.069Z,1.50
2018-03-07T20:46:17.471Z,1.60
2018-03-07T20:50:20.865Z,1.50
2018-03-07T20:54:24.388Z,1.50
2018-03-07T20:58:27.780Z,1.50
2018-03-07T21:02:31.163Z,1.50
2018-03-07T21:06:35.290Z,1.60
2018-03-07T21:10:39.431Z,1.60
2018-03-07T21:14:43.051Z,1.50
2018-03-07T21:18:46.422Z,1.50
2018-03-07T21:22:50.575Z,1.60
2018-03-07T21:26:54.039Z,1.60
2018-03-07T21:30:57.515Z,1.60
2018-03-07T21:35:00.894Z,1.60
2018-03-07T21:39:04.249Z,1.60
2018-03-07T21:43:07.626Z,1.60
2018-03-07T21:47:11.142Z,1.60
2018-03-07T21:51:14.491Z,1.60
2018-03-07T21:55:17.926Z,1.60
2018-03-07T21:59:21.303Z,1.60
2018-03-07T22:03:25.557Z,1.60
2018-03-07T22:07:29.432Z,1.60
2018-03-07T22:11:32.795Z,1.60
2018-03-07T22:15:36.166Z,1.50
2018-03-07T22:19:40.298Z,1.50
2018-03-07T22:23:43.695Z,1.50
2018-03-07T22:27:47.825Z,1.60
2018-03-07T22:31:51.279Z,1.60
2018-03-07T22:35:54.678Z,1.60
2018-03-07T22:39:58.052Z,1.60
2018-03-07T22:44:01.429Z,1.60
2018-03-07T22:48:05.653Z,1.60
2018-03-07T22:52:09.013Z,1.60
2018-03-07T22:56:12.541Z,1.60
2018-03-07T23:00:26.249Z,1.60
2018-03-07T23:04:30.394Z,1.60
2018-03-07T23:08:33.779Z,1.60
2018-03-07T23:12:37.203Z,1.60
2018-03-07T23:16:40.595Z,1.60
2018-03-07T23:20:44.078Z,1.60
2018-03-07T23:24:48.206Z,1.50
2018-03-07T23:28:52.337Z,1.50
2018-03-07T23:32:56.466Z,1.60
2018-03-07T23:36:59.840Z,1.60
2018-03-07T23:41:04.002Z,1.60
2018-03-07T23:45:07.394Z,1.60
2018-03-07T23:49:11.517Z,1.50
2018-03-07T23:53:15.750Z,1.60
2018-03-07T23:57:19.125Z,1.60
